createdAt,value
2023-03-23T17:02:18.468Z,70.25
2023-03-23T17:04:16.405Z,74.50
2023-03-23T17:05:49.759Z,72.00
2023-03-23T17:07:21.832Z,79.50
2023-03-23T17:08:53.856Z,83.50
2023-03-23T17:10:27.695Z,104.00
2023-03-23T17:12:00.177Z,103.50
2023-03-23T17:13:32.636Z,108.00
2023-03-23T17:15:11.421Z,117.60
2023-03-23T17:16:51.201Z,111.40
2023-03-23T17:18:24.321Z,117.40
2023-03-23T17:19:56.725Z,106.80
2023-03-23T17:21:28.564Z,102.50
2023-03-23T17:23:01.437Z,119.40
2023-03-23T17:24:42.969Z,113.00
2023-03-23T17:26:22.841Z,105.40
2023-03-23T17:27:54.878Z,108.40
2023-03-23T17:29:27.179Z,106.60
2023-03-23T17:30:59.361Z,114.20
2023-03-23T17:32:31.436Z,118.60
2023-03-23T17:34:03.845Z,116.20
2023-03-23T17:35:36.115Z,122.50
2023-03-23T17:37:08.316Z,132.75
2023-03-23T17:38:40.541Z,122.25
2023-03-23T17:40:14.736Z,127.75
2023-03-23T17:41:53.473Z,132.25
2023-03-23T17:43:25.693Z,130.00
2023-03-23T17:44:57.767Z,142.00
2023-03-23T17:46:30.151Z,128.75
2023-03-23T17:48:02.206Z,129.50
2023-03-23T17:49:34.386Z,133.00
2023-03-23T17:51:06.624Z,123.75
2023-03-23T17:52:38.467Z,129.00
2023-03-23T17:54:10.752Z,127.25
2023-03-23T17:55:48.163Z,105.60
2023-03-23T17:57:21.769Z,102.00
2023-03-23T17:58:55.397Z,85.75
2023-03-23T18:00:31.526Z,79.75
2023-03-23T18:02:58.450Z,94.25
2023-03-23T18:04:33.074Z,95.00
2023-03-23T18:06:08.396Z,98.00
2023-03-23T18:07:40.397Z,84.00
2023-03-23T18:09:15.030Z,93.25
2023-03-23T18:11:15.849Z,101.00
2023-03-23T18:12:54.570Z,94.25
2023-03-23T18:14:58.200Z,97.75
2023-03-23T18:16:33.522Z,92.50
2023-03-23T18:18:06.157Z,89.75
2023-03-23T18:19:44.740Z,91.75
2023-03-23T18:21:24.876Z,85.00
2023-03-23T18:22:57.044Z,86.50
2023-03-23T18:24:29.690Z,77.00
2023-03-23T18:26:06.624Z,75.25
2023-03-23T18:27:39.048Z,76.25
2023-03-23T18:29:11.284Z,78.75
2023-03-23T18:30:49.373Z,75.50
2023-03-23T18:32:21.605Z,74.25
2023-03-23T18:33:55.125Z,83.75
2023-03-23T18:35:27.842Z,77.75
2023-03-23T18:37:00.326Z,82.50
2023-03-23T18:38:59.692Z,92.25
2023-03-23T18:40:32.252Z,87.75
2023-03-23T18:42:05.449Z,83.75
2023-03-23T18:43:38.517Z,89.25
2023-03-23T18:45:11.272Z,107.25
2023-03-23T18:46:45.198Z,100.50
2023-03-23T18:48:19.285Z,105.00
2023-03-23T18:49:55.372Z,100.50
2023-03-23T18:51:27.700Z,103.75
2023-03-23T18:52:59.900Z,105.50
2023-03-23T18:54:38.443Z,95.25
2023-03-23T18:56:16.402Z,117.20
2023-03-23T18:57:49.772Z,114.80
2023-03-23T18:59:24.253Z,85.80
2023-03-23T19:01:03.474Z,113.40
2023-03-23T19:02:36.673Z,133.40
2023-03-23T19:04:09.053Z,137.00
2023-03-23T19:05:42.581Z,130.50
2023-03-23T19:07:15.766Z,120.00
2023-03-23T19:08:48.411Z,133.50
2023-03-23T19:10:49.579Z,129.50
2023-03-23T19:12:47.967Z,146.75
2023-03-23T19:14:20.642Z,142.25
2023-03-23T19:15:53.109Z,139.25
2023-03-23T19:17:26.178Z,128.50
2023-03-23T19:18:58.166Z,134.00
2023-03-23T19:20:54.938Z,138.50
2023-03-23T19:22:22.660Z,125.25
2023-03-23T19:23:55.223Z,133.00
2023-03-23T19:25:27.946Z,157.25
2023-03-23T19:27:00.209Z,155.00
2023-03-23T19:29:15.475Z,154.00
2023-03-23T19:30:24.348Z,163.50
2023-03-23T19:31:56.707Z,161.50
2023-03-23T19:33:28.645Z,150.50
2023-03-23T19:35:07.078Z,153.50
2023-03-23T19:36:40.828Z,172.75
2023-03-23T19:38:22.999Z,156.25
2023-03-23T19:39:55.047Z,168.25
2023-03-23T19:41:29.045Z,154.75
2023-03-23T19:43:01.127Z,179.50
2023-03-23T19:44:36.675Z,183.25
2023-03-23T19:46:09.523Z,192.00
2023-03-23T19:47:42.859Z,181.50
2023-03-23T19:49:16.509Z,190.50
2023-03-23T19:50:53.168Z,197.50
2023-03-23T19:52:25.943Z,200.75
2023-03-23T19:54:00.567Z,204.00
2023-03-23T19:55:57.978Z,189.75
2023-03-23T19:57:35.690Z,187.25
2023-03-23T19:59:10.745Z,206.00
2023-03-23T20:00:44.483Z,204.75
2023-03-23T20:02:17.476Z,188.00
2023-03-23T20:03:49.558Z,217.33
2023-03-23T20:05:22.340Z,218.00
2023-03-23T20:06:56.850Z,199.75
2023-03-23T20:08:29.857Z,186.67
2023-03-23T20:10:06.188Z,194.00
2023-03-23T20:11:38.588Z,232.33
2023-03-23T20:13:21.309Z,224.33
2023-03-23T20:14:59.063Z,218.67
2023-03-23T20:16:31.376Z,247.67
2023-03-23T20:18:04.825Z,222.33
2023-03-23T20:19:38.429Z,229.00
2023-03-23T20:21:19.799Z,242.33
2023-03-23T20:22:59.166Z,237.00
2023-03-23T20:24:31.303Z,230.67
2023-03-23T20:26:14.824Z,206.67
2023-03-23T20:27:46.741Z,221.33
2023-03-23T20:29:44.232Z,217.33
2023-03-23T20:31:23.989Z,220.00
2023-03-23T20:33:00.740Z,210.50
2023-03-23T20:34:32.727Z,235.33
2023-03-23T20:36:05.358Z,232.33
2023-03-23T20:37:41.293Z,231.00
2023-03-23T20:39:41.956Z,244.00
2023-03-23T20:41:15.071Z,248.33
2023-03-23T20:42:48.409Z,221.33
2023-03-23T20:44:23.492Z,240.33
2023-03-23T20:45:57.687Z,251.00
2023-03-23T20:47:29.838Z,229.67
2023-03-23T20:49:02.020Z,210.67
2023-03-23T20:50:34.248Z,229.00
2023-03-23T20:52:07.131Z,185.00
2023-03-23T20:53:39.940Z,217.33
2023-03-23T20:55:11.997Z,235.67
2023-03-23T20:56:44.781Z,211.33
2023-03-23T20:58:17.040Z,203.33
2023-03-23T20:59:50.955Z,216.33
2023-03-23T21:01:23.163Z,223.00
2023-03-23T21:02:55.130Z,206.67
2023-03-23T21:04:27.666Z,217.00
2023-03-23T21:05:59.932Z,219.00
2023-03-23T21:07:32.657Z,218.67
2023-03-23T21:09:04.565Z,210.50
2023-03-23T21:10:36.611Z,218.25
2023-03-23T21:12:09.603Z,221.00
2023-03-23T21:13:41.702Z,213.00
2023-03-23T21:15:38.611Z,209.00
2023-03-23T21:17:11.564Z,218.33
2023-03-23T21:18:44.001Z,211.00
2023-03-23T21:20:18.082Z,216.00
2023-03-23T21:21:56.344Z,215.25
2023-03-23T21:23:29.902Z,193.33
2023-03-23T21:25:02.712Z,191.75
2023-03-23T21:26:34.880Z,199.00
2023-03-23T21:28:06.918Z,204.00
2023-03-23T21:29:39.448Z,208.00
2023-03-23T21:31:17.426Z,197.67
2023-03-23T21:32:49.420Z,201.50
2023-03-23T21:34:21.550Z,220.00
2023-03-23T21:35:53.610Z,213.00
2023-03-23T21:37:26.559Z,208.25
2023-03-23T21:38:58.485Z,218.00
2023-03-23T21:40:30.660Z,197.50
2023-03-23T21:42:04.836Z,219.67
2023-03-23T21:43:36.908Z,219.33
2023-03-23T21:45:10.412Z,231.00
2023-03-23T21:46:42.349Z,216.33
2023-03-23T21:48:15.597Z,212.33
2023-03-23T21:49:47.609Z,220.67
2023-03-23T21:51:22.804Z,217.67
2023-03-23T21:52:54.701Z,220.67
2023-03-23T21:54:30.611Z,236.33
2023-03-23T21:56:03.995Z,239.00
2023-03-23T21:57:38.957Z,214.33
2023-03-23T21:59:16.745Z,217.00
2023-03-23T22:00:54.780Z,233.33
2023-03-23T22:02:26.884Z,222.33
2023-03-23T22:03:58.889Z,216.67
2023-03-23T22:05:32.176Z,195.00
2023-03-23T22:07:04.174Z,182.00
2023-03-23T22:08:37.442Z,170.50
2023-03-23T22:10:09.834Z,168.25
2023-03-23T22:11:42.088Z,173.25
2023-03-23T22:13:18.243Z,170.50
2023-03-23T22:15:27.943Z,166.00
2023-03-23T22:17:01.857Z,164.75
2023-03-23T22:18:34.804Z,165.00
2023-03-23T22:20:07.804Z,179.00
2023-03-23T22:21:45.522Z,161.50
2023-03-23T22:23:17.576Z,221.00
2023-03-23T22:24:49.505Z,167.25
2023-03-23T22:26:22.490Z,159.75
2023-03-23T22:27:56.733Z,162.75
2023-03-23T22:29:30.710Z,157.50
2023-03-23T22:31:07.715Z,153.25
2023-03-23T22:32:42.919Z,150.25
2023-03-23T22:34:31.403Z,141.25
2023-03-23T22:36:06.828Z,147.25
2023-03-23T22:37:38.923Z,158.00
2023-03-23T22:39:11.216Z,145.50
2023-03-23T22:41:23.020Z,146.00
2023-03-23T22:42:54.977Z,130.50
2023-03-23T22:44:27.784Z,136.00
2023-03-23T22:45:59.690Z,141.00
2023-03-23T22:47:32.258Z,124.75
2023-03-23T22:49:04.310Z,125.25
2023-03-23T22:50:36.418Z,133.25
2023-03-23T22:52:08.389Z,119.25
2023-03-23T22:53:44.893Z,140.25
2023-03-23T22:55:22.100Z,129.75
2023-03-23T22:56:54.212Z,139.75
2023-03-23T22:58:26.723Z,128.25
2023-03-23T22:59:58.746Z,136.75
2023-03-23T23:01:31.143Z,122.00
2023-03-23T23:03:03.059Z,112.25
2023-03-23T23:04:59.843Z,131.25
2023-03-23T23:06:34.507Z,125.25
2023-03-23T23:08:06.550Z,122.50
2023-03-23T23:09:38.412Z,126.00
2023-03-23T23:11:12.608Z,116.00
2023-03-23T23:12:45.760Z,120.00
2023-03-23T23:14:17.672Z,108.00
2023-03-23T23:16:25.438Z,107.00
2023-03-23T23:18:01.015Z,122.40
2023-03-23T23:19:38.656Z,113.80
2023-03-23T23:21:13.058Z,109.00
2023-03-23T23:22:45.158Z,107.20
2023-03-23T23:24:17.295Z,100.60
2023-03-23T23:25:49.362Z,100.80
2023-03-23T23:27:21.366Z,90.25
2023-03-23T23:28:53.360Z,96.40
2023-03-23T23:30:26.260Z,102.40
2023-03-23T23:32:01.443Z,92.00
2023-03-23T23:33:33.328Z,98.25
